Maxwell Air Force Base
KMXF : now visible

Airfield :











YOU CAN JOIN US ON...

 
LOGIN :

Register | Disclaimer

   EN    FR    IT 

 









Legend :    VFR   Marginal VFR   IFR   Intensive IFR   Very Intensive IFR
Visi :
Ceiling :
>= 8 km
>= 3000ft
5 to 8 km
1000 to 3000 ft
1500m to 5 km
500 to 1000 ft
800 to 1500m
200 to 500 ft
< 800m
< 200 ft
Symbols :   Thunderstorms  Fog  Heavy snow  Heavy precipitations  Wind > 20 kt






- Airport Elevation : 171 ft


KMXF - Maxwell Air Force Base

CURRENT METAR :
  • 280411Z AUTO 01003KT 10SM OVC012 20/20 A2995 RMK AO2 SLP144 $

EXPIRED METARs :
  • 280356Z AUTO 03003KT 10SM OVC009 21/20 A2995 RMK AO2 SLP144 T02050198 $
  • 280341Z AUTO 02004KT 10SM OVC009 20/20 A2996 RMK AO2 CIG 007V009 SLP147 $
  • 280326Z AUTO 01003KT 10SM OVC007 21/20 A2996 RMK AO2 OVC V BKN SLP147 $
  • 280256Z AUTO 01003KT 10SM BKN006 21/20 A2996 RMK AO2 BKN V OVC SLP147 T02060199 52018 $
  • 280241Z AUTO 01003KT 10SM BKN006 21/20 A2995 RMK AO2 SLP144 $
  • 280156Z AUTO 00000KT 10SM OVC007 21/21 A2993 RMK AO2 OVC V BKN SLP137 T02140205 $
  • 280141Z AUTO 33003KT 10SM BKN008 BKN014 22/21 A2993 RMK AO2 CIG 008V012 BKN008 V SCT SLP137 $

TAF TAF KMXF
Valid from the 27 at 19:00 until the 29 at 01:00 UTC


271900Z 2719/2901 VRB06KT 4800 -SHRA OVC015 QNH2990INS
BECMG 2720/2721 18020G35KT 6000 -TSRA OVC012CB QNH2990INS
TEMPO 2721/2724 2400 TSRA OVC012CB
BECMG 2723/2724 05012KT 8000 RA VCTS SCT010CB QNH2990INS
BECMG 2802/2803 VRB04KT 4800 BR SCT009 QNH2993INS
BECMG 2811/2812 VRB06KT 0800 FG SCT002 QNH2998INS
BECMG 2814/2815 VRB06KT 3200 BR BKN003 QNH3003INS
BECMG 2815/2816 16006KT 9999 NSW SCT025 QNH2997INS TX28/2720Z TN18/2805Z LAST NO AMDS AFT 2723 NEXT 2811
KZTL FIR / North America



MET'MAP, your aeronautical weather chart ! - Copyright ORBIFLY December 2007 - Disclaimer

ORBIFLY MET'MAP TEAM :

Programming & Development : Alexandra Zaïnal
Concept & original design : Baudouin d'Aumeries
Assistance for programming : Marc-Olivier Méhu
Technical & hardware support : Manuel Goepfert

Contact : metmap@orbifly.com




SOURCES & CREDITS :

   NOAA       Earth
Advisory